sensor_id;sensor_type;location;lat;lon;timestamp;pressure;altitude;pressure_sealevel;temperature;humidity
5905;BME280;2978;42.012;24.880;2022-10-16T00:01:21;99452.31;;;13.11;73.12
5905;BME280;2978;42.012;24.880;2022-10-16T00:03:47;99455.06;;;13.11;73.33
5905;BME280;2978;42.012;24.880;2022-10-16T00:06:13;99455.63;;;13.18;73.03
5905;BME280;2978;42.012;24.880;2022-10-16T00:08:40;99465.31;;;13.11;73.21
5905;BME280;2978;42.012;24.880;2022-10-16T00:11:08;99457.25;;;13.04;73.60
5905;BME280;2978;42.012;24.880;2022-10-16T00:13:36;99462.53;;;13.11;73.52
5905;BME280;2978;42.012;24.880;2022-10-16T00:16:03;99451.78;;;13.14;73.54
5905;BME280;2978;42.012;24.880;2022-10-16T00:18:29;99463.91;;;13.23;73.17
5905;BME280;2978;42.012;24.880;2022-10-16T00:20:55;99464.75;;;13.29;73.03
5905;BME280;2978;42.012;24.880;2022-10-16T00:23:26;99457.03;;;13.31;73.03
5905;BME280;2978;42.012;24.880;2022-10-16T00:25:59;99467.22;;;13.25;73.24
5905;BME280;2978;42.012;24.880;2022-10-16T00:28:26;99454.53;;;13.24;73.56
5905;BME280;2978;42.012;24.880;2022-10-16T00:30:51;99455.06;;;13.11;74.43
5905;BME280;2978;42.012;24.880;2022-10-16T00:33:17;99459.22;;;13.09;74.93
5905;BME280;2978;42.012;24.880;2022-10-16T00:35:43;99453.09;;;12.97;75.17
5905;BME280;2978;42.012;24.880;2022-10-16T00:38:09;99453.91;;;12.97;75.77
5905;BME280;2978;42.012;24.880;2022-10-16T00:40:34;99463.88;;;12.93;75.09
5905;BME280;2978;42.012;24.880;2022-10-16T00:43:00;99464.41;;;12.95;76.00
5905;BME280;2978;42.012;24.880;2022-10-16T00:45:25;99456.66;;;12.87;76.31
5905;BME280;2978;42.012;24.880;2022-10-16T00:47:52;99459.41;;;12.87;76.37
5905;BME280;2978;42.012;24.880;2022-10-16T00:50:26;99462.47;;;12.86;76.75
5905;BME280;2978;42.012;24.880;2022-10-16T00:52:53;99461.03;;;12.78;77.18
5905;BME280;2978;42.012;24.880;2022-10-16T00:55:20;99474.56;;;12.80;76.95
5905;BME280;2978;42.012;24.880;2022-10-16T00:57:46;99478.44;;;12.79;76.88
5905;BME280;2978;42.012;24.880;2022-10-16T01:00:16;99477.88;;;12.77;76.67
5905;BME280;2978;42.012;24.880;2022-10-16T01:02:42;99464.91;;;12.72;76.60
5905;BME280;2978;42.012;24.880;2022-10-16T01:05:08;99479.56;;;12.78;76.63
5905;BME280;2978;42.012;24.880;2022-10-16T01:08:02;99481.22;;;12.84;76.53
5905;BME280;2978;42.012;24.880;2022-10-16T01:10:40;99487.56;;;12.89;76.05
5905;BME280;2978;42.012;24.880;2022-10-16T01:13:19;99490.91;;;12.96;75.13
5905;BME280;2978;42.012;24.880;2022-10-16T01:16:22;99487.31;;;13.01;75.16
5905;BME280;2978;42.012;24.880;2022-10-16T01:18:54;99494.53;;;13.02;75.68
5905;BME280;2978;42.012;24.880;2022-10-16T01:21:26;99498.09;;;13.02;75.43
5905;BME280;2978;42.012;24.880;2022-10-16T01:29:16;99512.75;;;13.13;74.70
5905;BME280;2978;42.012;24.880;2022-10-16T01:31:49;99511.13;;;13.12;74.31
5905;BME280;2978;42.012;24.880;2022-10-16T01:34:25;99510.84;;;13.13;74.38
5905;BME280;2978;42.012;24.880;2022-10-16T01:36:58;99500.34;;;13.15;74.50
5905;BME280;2978;42.012;24.880;2022-10-16T01:39:31;99505.31;;;13.18;74.57
5905;BME280;2978;42.012;24.880;2022-10-16T01:42:08;99517.50;;;13.27;73.92
5905;BME280;2978;42.012;24.880;2022-10-16T01:44:36;99510.84;;;13.18;74.59
5905;BME280;2978;42.012;24.880;2022-10-16T01:47:04;99506.72;;;13.16;74.24
5905;BME280;2978;42.012;24.880;2022-10-16T01:49:33;99520.25;;;13.17;74.77
5905;BME280;2978;42.012;24.880;2022-10-16T01:52:04;99517.19;;;13.14;74.06
5905;BME280;2978;42.012;24.880;2022-10-16T01:54:32;99513.03;;;13.16;74.49
5905;BME280;2978;42.012;24.880;2022-10-16T01:56:59;99515.81;;;13.16;74.29
5905;BME280;2978;42.012;24.880;2022-10-16T01:59:26;99514.44;;;13.24;74.00
5905;BME280;2978;42.012;24.880;2022-10-16T02:01:56;99529.66;;;13.26;74.00
5905;BME280;2978;42.012;24.880;2022-10-16T02:04:29;99524.13;;;13.36;73.62
5905;BME280;2978;42.012;24.880;2022-10-16T02:06:56;99518.59;;;13.26;73.44
5905;BME280;2978;42.012;24.880;2022-10-16T02:09:22;99524.69;;;13.33;73.67
5905;BME280;2978;42.012;24.880;2022-10-16T02:11:47;99529.94;;;13.40;73.38
5905;BME280;2978;42.012;24.880;2022-10-16T02:14:14;99532.72;;;13.40;73.04
5905;BME280;2978;42.012;24.880;2022-10-16T02:16:45;99527.47;;;13.38;73.00
5905;BME280;2978;42.012;24.880;2022-10-16T02:19:13;99532.44;;;13.41;72.93
5905;BME280;2978;42.012;24.880;2022-10-16T02:22:00;99527.47;;;13.38;72.20
5905;BME280;2978;42.012;24.880;2022-10-16T02:27:32;99523.56;;;13.29;72.58
5905;BME280;2978;42.012;24.880;2022-10-16T02:30:24;99530.19;;;13.23;72.79
5905;BME280;2978;42.012;24.880;2022-10-16T02:32:52;99529.66;;;13.26;73.07
5905;BME280;2978;42.012;24.880;2022-10-16T02:35:20;99525.78;;;13.27;73.04
5905;BME280;2978;42.012;24.880;2022-10-16T02:37:47;99534.34;;;13.31;72.65
5905;BME280;2978;42.012;24.880;2022-10-16T02:40:14;99539.03;;;13.35;72.47
5905;BME280;2978;42.012;24.880;2022-10-16T02:42:40;99541.84;;;13.40;72.35
5905;BME280;2978;42.012;24.880;2022-10-16T02:45:07;99542.91;;;13.44;71.92
5905;BME280;2978;42.012;24.880;2022-10-16T02:47:33;99547.88;;;13.37;72.37
5905;BME280;2978;42.012;24.880;2022-10-16T02:49:59;99547.03;;;13.32;73.05
5905;BME280;2978;42.012;24.880;2022-10-16T02:52:24;99548.44;;;13.29;73.19
5905;BME280;2978;42.012;24.880;2022-10-16T02:54:50;99552.31;;;13.33;72.64
5905;BME280;2978;42.012;24.880;2022-10-16T02:57:15;99550.06;;;13.20;73.21
5905;BME280;2978;42.012;24.880;2022-10-16T02:59:41;99548.69;;;13.18;73.58
5905;BME280;2978;42.012;24.880;2022-10-16T03:02:07;99554.75;;;13.15;73.80
5905;BME280;2978;42.012;24.880;2022-10-16T03:04:32;99553.06;;;13.04;73.67
5905;BME280;2978;42.012;24.880;2022-10-16T03:06:57;99553.09;;;13.14;73.20
5905;BME280;2978;42.012;24.880;2022-10-16T03:09:23;99555.03;;;13.18;73.13
5905;BME280;2978;42.012;24.880;2022-10-16T03:11:48;99565.84;;;13.25;73.42
5905;BME280;2978;42.012;24.880;2022-10-16T03:14:14;99547.31;;;13.20;73.46
5905;BME280;2978;42.012;24.880;2022-10-16T03:16:39;99568.03;;;13.23;73.27
5905;BME280;2978;42.012;24.880;2022-10-16T03:19:05;99563.31;;;13.23;73.35
5905;BME280;2978;42.012;24.880;2022-10-16T03:21:30;99571.56;;;13.08;73.59
5905;BME280;2978;42.012;24.880;2022-10-16T03:23:55;99569.94;;;13.07;73.80
5905;BME280;2978;42.012;24.880;2022-10-16T03:26:21;99566.31;;;13.07;73.67
5905;BME280;2978;42.012;24.880;2022-10-16T03:28:46;99569.38;;;13.10;73.74
5905;BME280;2978;42.012;24.880;2022-10-16T03:31:12;99573.25;;;13.14;73.66
5905;BME280;2978;42.012;24.880;2022-10-16T03:33:37;99576.03;;;13.19;73.88
5905;BME280;2978;42.012;24.880;2022-10-16T03:36:03;99574.94;;;13.30;73.52
5905;BME280;2978;42.012;24.880;2022-10-16T03:38:28;99575.50;;;13.32;73.14
5905;BME280;2978;42.012;24.880;2022-10-16T03:40:53;99583.22;;;13.30;72.93
5905;BME280;2978;42.012;24.880;2022-10-16T03:43:19;99583.78;;;13.32;73.13
5905;BME280;2978;42.012;24.880;2022-10-16T03:45:44;99576.03;;;13.24;72.86
5905;BME280;2978;42.012;24.880;2022-10-16T03:48:10;99584.34;;;13.29;73.13
5905;BME280;2978;42.012;24.880;2022-10-16T03:50:36;99584.91;;;13.31;73.33
5905;BME280;2978;42.012;24.880;2022-10-16T03:53:01;99585.41;;;13.23;73.00
5905;BME280;2978;42.012;24.880;2022-10-16T03:55:27;99576.03;;;13.14;73.22
5905;BME280;2978;42.012;24.880;2022-10-16T03:57:52;99595.94;;;13.21;73.15
5905;BME280;2978;42.012;24.880;2022-10-16T04:00:18;99590.91;;;13.18;72.75
5905;BME280;2978;42.012;24.880;2022-10-16T04:02:43;99592.84;;;13.13;73.01
5905;BME280;2978;42.012;24.880;2022-10-16T04:05:09;99592.59;;;13.14;73.40
5905;BME280;2978;42.012;24.880;2022-10-16T04:07:34;99594.22;;;13.05;73.59
5905;BME280;2978;42.012;24.880;2022-10-16T04:09:59;99588.41;;;13.02;73.52
5905;BME280;2978;42.012;24.880;2022-10-16T04:12:26;99583.34;;;12.94;74.15
5905;BME280;2978;42.012;24.880;2022-10-16T04:14:51;99575.59;;;12.81;74.10
5905;BME280;2978;42.012;24.880;2022-10-16T04:17:17;99572.56;;;12.87;74.02
5905;BME280;2978;42.012;24.880;2022-10-16T04:19:42;99585.22;;;12.83;74.03
5905;BME280;2978;42.012;24.880;2022-10-16T04:22:08;99574.19;;;12.83;74.17
5905;BME280;2978;42.012;24.880;2022-10-16T04:24:33;99573.38;;;12.78;74.13
5905;BME280;2978;42.012;24.880;2022-10-16T04:26:59;99580.50;;;12.74;74.48
5905;BME280;2978;42.012;24.880;2022-10-16T04:29:24;99581.06;;;12.71;74.70
5905;BME280;2978;42.012;24.880;2022-10-16T04:31:50;99589.31;;;12.66;74.89
5905;BME280;2978;42.012;24.880;2022-10-16T04:34:15;99593.44;;;12.63;75.71
5905;BME280;2978;42.012;24.880;2022-10-16T04:36:40;99606.09;;;12.59;76.12
5905;BME280;2978;42.012;24.880;2022-10-16T04:39:06;99607.75;;;12.60;77.54
5905;BME280;2978;42.012;24.880;2022-10-16T04:41:31;99619.78;;;12.44;78.84
5905;BME280;2978;42.012;24.880;2022-10-16T04:43:57;99620.06;;;12.42;79.24
5905;BME280;2978;42.012;24.880;2022-10-16T04:46:22;99623.06;;;12.36;79.84
5905;BME280;2978;42.012;24.880;2022-10-16T04:48:48;99618.03;;;12.28;80.45
5905;BME280;2978;42.012;24.880;2022-10-16T04:51:13;99619.03;;;12.17;80.76
5905;BME280;2978;42.012;24.880;2022-10-16T04:53:38;99622.28;;;12.09;81.52
5905;BME280;2978;42.012;24.880;2022-10-16T04:56:04;99622.53;;;12.02;82.74
5905;BME280;2978;42.012;24.880;2022-10-16T04:58:30;99615.53;;;11.90;83.08
5905;BME280;2978;42.012;24.880;2022-10-16T05:00:55;99622.19;;;11.94;83.50
5905;BME280;2978;42.012;24.880;2022-10-16T05:03:20;99622.94;;;11.89;83.68
5905;BME280;2978;42.012;24.880;2022-10-16T05:05:46;99614.38;;;11.86;83.30
5905;BME280;2978;42.012;24.880;2022-10-16T05:08:15;99615.78;;;11.88;82.64
5905;BME280;2978;42.012;24.880;2022-10-16T05:10:42;99616.41;;;11.95;80.66
5905;BME280;2978;42.012;24.880;2022-10-16T05:13:08;99618.41;;;12.05;80.00
5905;BME280;2978;42.012;24.880;2022-10-16T05:15:33;99620.19;;;12.21;79.05
5905;BME280;2978;42.012;24.880;2022-10-16T05:17:59;99617.25;;;12.32;78.71
5905;BME280;2978;42.012;24.880;2022-10-16T05:20:25;99627.81;;;12.45;77.98
5905;BME280;2978;42.012;24.880;2022-10-16T05:22:50;99622.34;;;12.56;77.52
5905;BME280;2978;42.012;24.880;2022-10-16T05:25:16;99630.88;;;12.54;77.55
5905;BME280;2978;42.012;24.880;2022-10-16T05:27:41;99637.81;;;12.57;77.38
5905;BME280;2978;42.012;24.880;2022-10-16T05:30:07;99629.25;;;12.58;76.73
5905;BME280;2978;42.012;24.880;2022-10-16T05:32:33;99635.91;;;12.62;76.95
5905;BME280;2978;42.012;24.880;2022-10-16T05:34:58;99641.97;;;12.64;76.52
5905;BME280;2978;42.012;24.880;2022-10-16T05:37:25;99650.56;;;12.73;76.64
5905;BME280;2978;42.012;24.880;2022-10-16T05:39:52;99652.56;;;12.82;75.61
5905;BME280;2978;42.012;24.880;2022-10-16T05:42:17;99658.72;;;12.94;75.08
5905;BME280;2978;42.012;24.880;2022-10-16T05:44:43;99652.75;;;13.07;74.68
5905;BME280;2978;42.012;24.880;2022-10-16T05:47:08;99663.81;;;13.12;74.69
5905;BME280;2978;42.012;24.880;2022-10-16T05:49:35;99666.06;;;13.25;75.09
5905;BME280;2978;42.012;24.880;2022-10-16T05:52:01;99669.94;;;13.24;75.37
5905;BME280;2978;42.012;24.880;2022-10-16T05:54:27;99680.13;;;13.24;76.13
5905;BME280;2978;42.012;24.880;2022-10-16T05:56:52;99676.00;;;13.21;76.62
5905;BME280;2978;42.012;24.880;2022-10-16T05:59:18;99676.50;;;13.18;76.86
5905;BME280;2978;42.012;24.880;2022-10-16T06:01:43;99682.63;;;13.25;76.70
5905;BME280;2978;42.012;24.880;2022-10-16T06:04:09;99672.97;;;13.23;76.53
5905;BME280;2978;42.012;24.880;2022-10-16T06:06:34;99685.38;;;13.25;76.53
5905;BME280;2978;42.012;24.880;2022-10-16T06:09:02;99687.88;;;13.32;76.72
5905;BME280;2978;42.012;24.880;2022-10-16T06:11:29;99686.03;;;13.47;76.01
5905;BME280;2978;42.012;24.880;2022-10-16T06:13:58;99688.28;;;13.66;74.99
5905;BME280;2978;42.012;24.880;2022-10-16T06:16:25;99687.22;;;13.82;74.12
5905;BME280;2978;42.012;24.880;2022-10-16T06:18:52;99690.00;;;14.02;73.41
5905;BME280;2978;42.012;24.880;2022-10-16T06:21:20;99693.91;;;14.16;72.73
5905;BME280;2978;42.012;24.880;2022-10-16T06:23:46;99699.50;;;14.31;71.90
5905;BME280;2978;42.012;24.880;2022-10-16T06:26:14;99696.97;;;14.49;70.90
5905;BME280;2978;42.012;24.880;2022-10-16T06:28:40;99698.94;;;14.59;70.68
5905;BME280;2978;42.012;24.880;2022-10-16T06:31:07;99697.25;;;14.53;70.53
5905;BME280;2978;42.012;24.880;2022-10-16T06:33:33;99714.97;;;14.67;70.31
5905;BME280;2978;42.012;24.880;2022-10-16T06:38:28;99717.19;;;14.40;71.21
5905;BME280;2978;42.012;24.880;2022-10-16T06:40:53;99718.50;;;14.12;72.60
5905;BME280;2978;42.012;24.880;2022-10-16T06:43:19;99728.72;;;14.02;73.25
5905;BME280;2978;42.012;24.880;2022-10-16T06:45:51;99725.13;;;13.91;74.15
5905;BME280;2978;42.012;24.880;2022-10-16T06:48:16;99735.56;;;13.79;75.02
5905;BME280;2978;42.012;24.880;2022-10-16T06:50:42;99739.06;;;13.49;76.51
5905;BME280;2978;42.012;24.880;2022-10-16T06:53:07;99744.56;;;13.39;77.25
5905;BME280;2978;42.012;24.880;2022-10-16T06:55:33;99742.69;;;13.55;76.84
5905;BME280;2978;42.012;24.880;2022-10-16T06:57:58;99748.03;;;13.77;76.73
5905;BME280;2978;42.012;24.880;2022-10-16T07:00:23;99745.28;;;13.87;76.16
5905;BME280;2978;42.012;24.880;2022-10-16T07:02:49;99746.44;;;14.01;75.70
5905;BME280;2978;42.012;24.880;2022-10-16T07:05:15;99743.66;;;14.11;74.76
5905;BME280;2978;42.012;24.880;2022-10-16T07:07:40;99744.56;;;14.26;73.66
5905;BME280;2978;42.012;24.880;2022-10-16T07:10:06;99743.19;;;14.29;72.77
5905;BME280;2978;42.012;24.880;2022-10-16T07:12:31;99747.88;;;14.28;72.34
5905;BME280;2978;42.012;24.880;2022-10-16T07:14:56;99752.03;;;14.31;72.52
5905;BME280;2978;42.012;24.880;2022-10-16T07:17:22;99753.41;;;14.33;72.00
5905;BME280;2978;42.012;24.880;2022-10-16T07:19:47;99752.06;;;14.36;71.85
5905;BME280;2978;42.012;24.880;2022-10-16T07:22:13;99758.66;;;14.35;72.01
5905;BME280;2978;42.012;24.880;2022-10-16T07:24:38;99756.19;;;14.38;71.57
5905;BME280;2978;42.012;24.880;2022-10-16T07:27:04;99759.78;;;14.49;71.33
5905;BME280;2978;42.012;24.880;2022-10-16T07:29:29;99752.03;;;14.51;71.53
5905;BME280;2978;42.012;24.880;2022-10-16T07:31:54;99763.66;;;14.63;71.06
5905;BME280;2978;42.012;24.880;2022-10-16T07:34:20;99757.88;;;14.75;70.85
5905;BME280;2978;42.012;24.880;2022-10-16T07:36:50;99752.88;;;14.87;70.46
5905;BME280;2978;42.012;24.880;2022-10-16T07:39:16;99757.28;;;14.88;70.16
5905;BME280;2978;42.012;24.880;2022-10-16T07:41:42;99756.47;;;14.92;69.96
5905;BME280;2978;42.012;24.880;2022-10-16T07:44:07;99750.91;;;15.07;69.20
5905;BME280;2978;42.012;24.880;2022-10-16T07:46:33;99747.53;;;15.15;68.95
5905;BME280;2978;42.012;24.880;2022-10-16T07:49:01;99756.38;;;15.32;68.44
5905;BME280;2978;42.012;24.880;2022-10-16T07:51:26;99760.78;;;15.48;67.68
5905;BME280;2978;42.012;24.880;2022-10-16T07:53:52;99756.31;;;15.57;67.14
5905;BME280;2978;42.012;24.880;2022-10-16T07:56:19;99750.97;;;15.71;66.52
5905;BME280;2978;42.012;24.880;2022-10-16T07:58:44;99745.69;;;15.74;66.04
5905;BME280;2978;42.012;24.880;2022-10-16T08:01:12;99746.47;;;15.85;65.74
5905;BME280;2978;42.012;24.880;2022-10-16T08:03:41;99748.94;;;15.97;65.16
5905;BME280;2978;42.012;24.880;2022-10-16T08:06:07;99759.97;;;16.07;64.49
5905;BME280;2978;42.012;24.880;2022-10-16T08:08:32;99759.94;;;16.12;64.33
5905;BME280;2978;42.012;24.880;2022-10-16T08:10:58;99749.97;;;16.11;64.00
5905;BME280;2978;42.012;24.880;2022-10-16T08:13:23;99764.59;;;16.16;63.87
5905;BME280;2978;42.012;24.880;2022-10-16T08:15:49;99749.31;;;16.24;63.68
5905;BME280;2978;42.012;24.880;2022-10-16T08:18:15;99751.78;;;16.25;63.48
5905;BME280;2978;42.012;24.880;2022-10-16T08:20:42;99750.41;;;16.28;63.38
5905;BME280;2978;42.012;24.880;2022-10-16T08:23:10;99748.66;;;16.37;62.71
5905;BME280;2978;42.012;24.880;2022-10-16T08:25:36;99741.44;;;16.36;62.64
5905;BME280;2978;42.012;24.880;2022-10-16T08:28:09;99740.84;;;16.39;62.55
5905;BME280;2978;42.012;24.880;2022-10-16T08:30:36;99738.88;;;16.44;62.71
5905;BME280;2978;42.012;24.880;2022-10-16T08:33:02;99747.13;;;16.59;62.62
5905;BME280;2978;42.012;24.880;2022-10-16T08:35:28;99735.09;;;16.69;61.73
5905;BME280;2978;42.012;24.880;2022-10-16T08:37:54;99741.50;;;16.69;60.25
5905;BME280;2978;42.012;24.880;2022-10-16T08:48:54;99744.72;;;16.81;59.18
5905;BME280;2978;42.012;24.880;2022-10-16T08:54:03;99738.25;;;16.91;56.49
5905;BME280;2978;42.012;24.880;2022-10-16T08:56:29;99736.56;;;16.90;55.99
5905;BME280;2978;42.012;24.880;2022-10-16T08:58:55;99740.13;;;16.96;55.80
5905;BME280;2978;42.012;24.880;2022-10-16T09:01:24;99737.34;;;16.96;55.48
5905;BME280;2978;42.012;24.880;2022-10-16T09:13:01;99760.38;;;17.01;54.73
5905;BME280;2978;42.012;24.880;2022-10-16T09:23:44;99748.84;;;17.13;52.50
5905;BME280;2978;42.012;24.880;2022-10-16T09:26:12;99745.28;;;17.07;53.00
5905;BME280;2978;42.012;24.880;2022-10-16T09:28:38;99736.38;;;17.10;53.60
5905;BME280;2978;42.012;24.880;2022-10-16T09:31:04;99740.81;;;17.11;53.84
5905;BME280;2978;42.012;24.880;2022-10-16T09:33:39;99734.59;;;17.19;51.90
5905;BME280;2978;42.012;24.880;2022-10-16T09:36:06;99736.53;;;16.95;50.43
5905;BME280;2978;42.012;24.880;2022-10-16T09:38:35;99726.44;;;17.04;51.02
5905;BME280;2978;42.012;24.880;2022-10-16T09:41:03;99733.59;;;17.10;49.07
5905;BME280;2978;42.012;24.880;2022-10-16T09:43:55;99739.06;;;17.20;47.90
5905;BME280;2978;42.012;24.880;2022-10-16T09:46:28;99738.09;;;17.30;46.71
5905;BME280;2978;42.012;24.880;2022-10-16T09:49:02;99735.25;;;17.35;46.69
5905;BME280;2978;42.012;24.880;2022-10-16T09:51:35;99722.72;;;17.37;49.70
5905;BME280;2978;42.012;24.880;2022-10-16T09:56:32;99715.16;;;17.43;50.09
5905;BME280;2978;42.012;24.880;2022-10-16T09:59:01;99725.66;;;17.51;49.63
5905;BME280;2978;42.012;24.880;2022-10-16T10:01:36;99714.94;;;17.63;49.52
5905;BME280;2978;42.012;24.880;2022-10-16T10:04:06;99712.69;;;17.65;49.79
5905;BME280;2978;42.012;24.880;2022-10-16T10:06:35;99710.81;;;17.79;49.33
5905;BME280;2978;42.012;24.880;2022-10-16T10:11:57;99707.53;;;17.95;48.20
5905;BME280;2978;42.012;24.880;2022-10-16T10:14:35;99705.41;;;17.87;48.87
5905;BME280;2978;42.012;24.880;2022-10-16T10:19:47;99701.97;;;17.95;48.38
5905;BME280;2978;42.012;24.880;2022-10-16T10:33:02;99701.91;;;18.01;48.01
5905;BME280;2978;42.012;24.880;2022-10-16T10:35:53;99677.06;;;17.85;48.30
5905;BME280;2978;42.012;24.880;2022-10-16T10:50:05;99677.41;;;18.35;47.68
5905;BME280;2978;42.012;24.880;2022-10-16T10:55:38;99680.59;;;18.28;45.37
5905;BME280;2978;42.012;24.880;2022-10-16T10:58:23;99681.00;;;18.22;42.88
5905;BME280;2978;42.012;24.880;2022-10-16T11:01:14;99684.44;;;18.14;43.08
5905;BME280;2978;42.012;24.880;2022-10-16T11:03:58;99677.06;;;18.23;43.36
5905;BME280;2978;42.012;24.880;2022-10-16T11:06:36;99676.31;;;18.17;44.12
5905;BME280;2978;42.012;24.880;2022-10-16T11:09:21;99667.56;;;18.24;44.77
5905;BME280;2978;42.012;24.880;2022-10-16T11:11:53;99668.00;;;18.31;45.04
5905;BME280;2978;42.012;24.880;2022-10-16T11:14:26;99662.78;;;18.11;45.44
5905;BME280;2978;42.012;24.880;2022-10-16T11:17:02;99660.59;;;18.08;45.69
5905;BME280;2978;42.012;24.880;2022-10-16T11:19:41;99663.22;;;18.18;45.11
5905;BME280;2978;42.012;24.880;2022-10-16T11:25:20;99660.06;;;18.24;45.98
5905;BME280;2978;42.012;24.880;2022-10-16T11:28:12;99654.69;;;18.28;45.92
5905;BME280;2978;42.012;24.880;2022-10-16T11:30:51;99666.28;;;18.35;45.40
5905;BME280;2978;42.012;24.880;2022-10-16T11:33:36;99658.94;;;18.25;45.73
5905;BME280;2978;42.012;24.880;2022-10-16T11:36:23;99661.06;;;18.15;46.02
5905;BME280;2978;42.012;24.880;2022-10-16T11:42:10;99649.47;;;18.40;45.43
5905;BME280;2978;42.012;24.880;2022-10-16T11:48:15;99663.22;;;18.68;44.73
5905;BME280;2978;42.012;24.880;2022-10-16T11:55:57;99652.31;;;18.85;43.81
5905;BME280;2978;42.012;24.880;2022-10-16T11:58:27;99658.84;;;18.94;43.22
5905;BME280;2978;42.012;24.880;2022-10-16T12:06:49;99655.00;;;19.04;42.52
5905;BME280;2978;42.012;24.880;2022-10-16T12:09:21;99657.31;;;19.02;42.35
5905;BME280;2978;42.012;24.880;2022-10-16T12:11:47;99650.78;;;18.93;42.34
5905;BME280;2978;42.012;24.880;2022-10-16T12:17:00;99656.47;;;18.88;41.90
5905;BME280;2978;42.012;24.880;2022-10-16T12:19:28;99654.47;;;18.88;41.99
5905;BME280;2978;42.012;24.880;2022-10-16T12:22:00;99649.22;;;18.87;41.08
5905;BME280;2978;42.012;24.880;2022-10-16T12:24:35;99650.25;;;18.91;41.05
5905;BME280;2978;42.012;24.880;2022-10-16T12:27:02;99650.16;;;18.96;41.30
5905;BME280;2978;42.012;24.880;2022-10-16T12:29:36;99656.38;;;19.06;40.48
5905;BME280;2978;42.012;24.880;2022-10-16T12:32:04;99659.78;;;19.03;40.85
5905;BME280;2978;42.012;24.880;2022-10-16T12:34:42;99661.22;;;19.01;40.92
5905;BME280;2978;42.012;24.880;2022-10-16T12:37:15;99667.09;;;19.13;41.23
5905;BME280;2978;42.012;24.880;2022-10-16T12:39:45;99659.88;;;19.12;41.47
5905;BME280;2978;42.012;24.880;2022-10-16T12:42:30;99657.69;;;19.09;40.86
5905;BME280;2978;42.012;24.880;2022-10-16T12:44:56;99659.34;;;18.96;41.22
5905;BME280;2978;42.012;24.880;2022-10-16T12:49:56;99669.88;;;19.13;40.97
5905;BME280;2978;42.012;24.880;2022-10-16T12:52:46;99671.47;;;19.05;41.05
5905;BME280;2978;42.012;24.880;2022-10-16T12:55:19;99662.47;;;19.08;40.76
5905;BME280;2978;42.012;24.880;2022-10-16T13:03:45;99669.88;;;19.13;40.90
5905;BME280;2978;42.012;24.880;2022-10-16T13:06:35;99675.38;;;19.18;41.04
5905;BME280;2978;42.012;24.880;2022-10-16T13:09:16;99674.25;;;19.19;40.50
5905;BME280;2978;42.012;24.880;2022-10-16T13:17:18;99673.00;;;19.25;40.15
5905;BME280;2978;42.012;24.880;2022-10-16T13:20:14;99661.41;;;19.18;40.29
5905;BME280;2978;42.012;24.880;2022-10-16T13:28:04;99681.91;;;19.54;40.07
5905;BME280;2978;42.012;24.880;2022-10-16T13:30:36;99681.28;;;19.57;39.60
5905;BME280;2978;42.012;24.880;2022-10-16T13:33:13;99676.13;;;19.64;39.60
5905;BME280;2978;42.012;24.880;2022-10-16T13:35:51;99669.69;;;19.64;39.32
5905;BME280;2978;42.012;24.880;2022-10-16T13:38:19;99672.09;;;19.57;39.36
5905;BME280;2978;42.012;24.880;2022-10-16T13:40:58;99677.56;;;19.62;40.09
5905;BME280;2978;42.012;24.880;2022-10-16T13:43:32;99685.41;;;19.60;40.07
5905;BME280;2978;42.012;24.880;2022-10-16T13:46:02;99680.25;;;19.53;40.03
5905;BME280;2978;42.012;24.880;2022-10-16T13:48:29;99682.13;;;19.58;39.72
5905;BME280;2978;42.012;24.880;2022-10-16T13:53:34;99682.94;;;19.58;40.05
5905;BME280;2978;42.012;24.880;2022-10-16T13:56:03;99684.72;;;19.54;40.00
5905;BME280;2978;42.012;24.880;2022-10-16T13:58:29;99678.09;;;19.50;39.70
5905;BME280;2978;42.012;24.880;2022-10-16T14:01:00;99691.00;;;19.46;39.47
5905;BME280;2978;42.012;24.880;2022-10-16T14:03:28;99682.00;;;19.49;40.20
5905;BME280;2978;42.012;24.880;2022-10-16T14:06:03;99674.88;;;19.43;39.99
5905;BME280;2978;42.012;24.880;2022-10-16T14:08:29;99678.09;;;19.50;39.71
5905;BME280;2978;42.012;24.880;2022-10-16T14:10:58;99686.06;;;19.43;40.14
5905;BME280;2978;42.012;24.880;2022-10-16T14:13:36;99691.00;;;19.46;40.61
5905;BME280;2978;42.012;24.880;2022-10-16T14:16:10;99689.03;;;19.47;39.89
5905;BME280;2978;42.012;24.880;2022-10-16T14:18:38;99694.19;;;19.53;39.88
5905;BME280;2978;42.012;24.880;2022-10-16T14:21:06;99685.00;;;19.39;40.18
5905;BME280;2978;42.012;24.880;2022-10-16T14:23:37;99673.44;;;19.32;40.95
5905;BME280;2978;42.012;24.880;2022-10-16T14:26:12;99682.75;;;19.41;40.64
5905;BME280;2978;42.012;24.880;2022-10-16T14:28:41;99684.81;;;19.36;40.62
5905;BME280;2978;42.012;24.880;2022-10-16T14:31:34;99687.56;;;19.49;41.39
5905;BME280;2978;42.012;24.880;2022-10-16T14:34:01;99684.59;;;19.46;41.70
5905;BME280;2978;42.012;24.880;2022-10-16T14:36:27;99681.31;;;19.44;41.73
5905;BME280;2978;42.012;24.880;2022-10-16T14:39:06;99675.31;;;19.37;41.78
5905;BME280;2978;42.012;24.880;2022-10-16T14:41:47;99688.31;;;19.41;42.50
5905;BME280;2978;42.012;24.880;2022-10-16T14:44:13;99692.06;;;19.37;43.01
5905;BME280;2978;42.012;24.880;2022-10-16T14:46:41;99695.28;;;19.25;43.21
5905;BME280;2978;42.012;24.880;2022-10-16T14:51:39;99689.81;;;18.93;44.90
5905;BME280;2978;42.012;24.880;2022-10-16T14:54:16;99694.00;;;18.77;45.31
5905;BME280;2978;42.012;24.880;2022-10-16T14:56:55;99698.16;;;18.61;45.70
5905;BME280;2978;42.012;24.880;2022-10-16T14:59:29;99700.59;;;18.49;46.38
5905;BME280;2978;42.012;24.880;2022-10-16T15:01:55;99700.38;;;18.27;46.76
5905;BME280;2978;42.012;24.880;2022-10-16T15:04:21;99705.59;;;18.15;46.62
5905;BME280;2978;42.012;24.880;2022-10-16T15:06:47;99702.47;;;17.97;46.78
5905;BME280;2978;42.012;24.880;2022-10-16T15:09:12;99699.84;;;17.87;47.02
5905;BME280;2978;42.012;24.880;2022-10-16T15:11:38;99692.78;;;17.76;46.60
5905;BME280;2978;42.012;24.880;2022-10-16T15:14:04;99705.72;;;17.67;47.10
5905;BME280;2978;42.012;24.880;2022-10-16T15:16:30;99700.25;;;17.57;47.19
5905;BME280;2978;42.012;24.880;2022-10-16T15:18:56;99717.09;;;17.42;47.75
5905;BME280;2978;42.012;24.880;2022-10-16T15:23:50;99715.69;;;17.21;48.88